createdAt,value
2019-02-05T00:02:15.173Z,99618.13
2019-02-05T00:04:45.151Z,99613.88
2019-02-05T00:07:34.013Z,99613.56
2019-02-05T00:10:09.838Z,99612.73
2019-02-05T00:12:39.396Z,99611.52
2019-02-05T00:15:09.489Z,99600.64
2019-02-05T00:17:40.691Z,99598.91
2019-02-05T00:20:11.026Z,99597.52
2019-02-05T00:22:40.620Z,99601.09
2019-02-05T00:25:11.056Z,99599.36
2019-02-05T00:27:42.186Z,99591.02
2019-02-05T00:30:15.604Z,99592.75
2019-02-05T00:32:45.654Z,99602.00
2019-02-05T00:35:15.564Z,99594.21
2019-02-05T00:37:45.212Z,99589.21
2019-02-05T00:40:17.063Z,99586.29
2019-02-05T00:42:48.132Z,99578.45
2019-02-05T00:45:19.885Z,99583.63
2019-02-05T00:47:50.092Z,99587.31
2019-02-05T00:50:20.888Z,99593.50
2019-02-05T00:52:50.448Z,99594.95
2019-02-05T00:55:21.781Z,99587.99
2019-02-05T00:57:51.328Z,99589.80
2019-02-05T01:00:26.093Z,99587.99
2019-02-05T01:02:56.503Z,99583.84
2019-02-05T01:05:45.336Z,99469.34
2019-02-05T01:08:14.931Z,99581.75
2019-02-05T01:10:44.890Z,99577.92
2019-02-05T01:13:15.958Z,99586.55
2019-02-05T01:15:45.702Z,99572.54
2019-02-05T01:18:15.286Z,99567.70
2019-02-05T01:20:46.357Z,99566.89
2019-02-05T01:23:16.434Z,99575.09
2019-02-05T01:25:46.010Z,99572.42
2019-02-05T01:28:15.579Z,99569.96
2019-02-05T01:30:45.189Z,99569.13
2019-02-05T01:33:14.768Z,99562.36
2019-02-05T01:35:44.315Z,99566.64
2019-02-05T01:38:13.906Z,99566.69
2019-02-05T01:40:43.558Z,99572.22
2019-02-05T01:43:13.281Z,99568.92
2019-02-05T01:45:43.247Z,99572.98
2019-02-05T01:48:12.898Z,99571.59
2019-02-05T01:50:42.457Z,99566.70
2019-02-05T01:53:12.072Z,99559.23
2019-02-05T01:55:41.721Z,99550.00
2019-02-05T01:58:11.296Z,99554.37
2019-02-05T02:00:41.084Z,99551.20
2019-02-05T02:03:10.946Z,99554.19
2019-02-05T02:05:40.954Z,99556.84
2019-02-05T02:08:10.565Z,99558.70
2019-02-05T02:10:40.212Z,99555.14
2019-02-05T02:13:09.947Z,99553.09
2019-02-05T02:15:39.572Z,99559.61
2019-02-05T02:18:09.303Z,99555.19
2019-02-05T02:20:39.194Z,99568.58
2019-02-05T02:23:08.947Z,99573.45
2019-02-05T02:25:38.605Z,99573.16
2019-02-05T02:28:08.374Z,99575.32
2019-02-05T02:30:39.492Z,99578.20
2019-02-05T02:33:09.368Z,99573.59
2019-02-05T02:35:39.110Z,99561.99
2019-02-05T02:38:08.849Z,99564.61
2019-02-05T02:40:41.337Z,99570.61
2019-02-05T02:43:10.900Z,99568.73
2019-02-05T02:45:40.573Z,99566.92
2019-02-05T02:48:10.380Z,99570.77
2019-02-05T02:50:40.143Z,99573.42
2019-02-05T02:53:09.950Z,99571.09
2019-02-05T02:55:58.888Z,99570.30
2019-02-05T02:58:28.494Z,99566.77
2019-02-05T03:00:58.001Z,99559.30
2019-02-05T03:03:27.730Z,99553.09
2019-02-05T03:05:57.504Z,99559.56
2019-02-05T03:08:27.091Z,99556.61
2019-02-05T03:10:56.826Z,99553.94
2019-02-05T03:13:26.449Z,99562.11
2019-02-05T03:15:56.382Z,99563.20
2019-02-05T03:18:26.815Z,99565.53
2019-02-05T03:20:56.421Z,99564.47
2019-02-05T03:23:45.256Z,99571.41
2019-02-05T03:26:14.861Z,99578.84
2019-02-05T03:28:44.731Z,99582.99
2019-02-05T03:31:14.288Z,99583.33
2019-02-05T03:33:43.911Z,99573.57
2019-02-05T03:36:13.499Z,99566.05
2019-02-05T03:38:43.230Z,99562.94
2019-02-05T03:41:12.836Z,99564.28
2019-02-05T03:43:42.923Z,99572.25
2019-02-05T03:46:13.143Z,99568.03
2019-02-05T03:48:45.606Z,99571.77
2019-02-05T03:51:19.663Z,99575.22
2019-02-05T03:53:53.893Z,99578.81
2019-02-05T03:56:33.946Z,99578.08
2019-02-05T03:59:08.572Z,99584.70
2019-02-05T04:01:42.598Z,99581.70
2019-02-05T04:04:16.711Z,99583.88
2019-02-05T04:09:27.341Z,99580.52
2019-02-05T04:12:01.747Z,99578.58
2019-02-05T04:14:36.014Z,99577.28
2019-02-05T04:17:16.149Z,99582.27
2019-02-05T04:19:50.333Z,99587.77
2019-02-05T04:22:24.394Z,99590.34
2019-02-05T04:25:04.820Z,99591.28
2019-02-05T04:27:45.093Z,99596.58
2019-02-05T04:30:15.037Z,99597.33
2019-02-05T04:32:49.066Z,99598.89
2019-02-05T04:35:23.158Z,99599.74
2019-02-05T04:37:57.708Z,99600.61
2019-02-05T04:40:31.794Z,99600.13
2019-02-05T04:45:50.832Z,99608.40
2019-02-05T04:48:25.256Z,99606.41
2019-02-05T04:50:59.717Z,99608.55
2019-02-05T04:53:33.763Z,99607.88
2019-02-05T04:56:07.812Z,99600.74
2019-02-05T04:58:42.115Z,99600.52
2019-02-05T05:03:55.890Z,99614.09
2019-02-05T05:06:29.937Z,99604.20
2019-02-05T05:09:04.736Z,99611.55
2019-02-05T05:11:53.617Z,99612.83
2019-02-05T05:14:23.203Z,99620.23
2019-02-05T05:16:54.259Z,99618.80
2019-02-05T05:19:24.567Z,99623.60
2019-02-05T05:21:54.783Z,99616.60
2019-02-05T05:24:26.191Z,99610.05
2019-02-05T05:26:55.923Z,99616.66
2019-02-05T05:29:25.650Z,99619.91
2019-02-05T05:31:55.523Z,99620.31
2019-02-05T05:34:25.487Z,99618.72
2019-02-05T05:39:34.558Z,99613.88
2019-02-05T05:42:04.696Z,99612.39
2019-02-05T05:44:34.306Z,99618.06
2019-02-05T05:47:04.743Z,99608.46
2019-02-05T05:49:34.370Z,99610.59
2019-02-05T05:52:04.111Z,99611.66
2019-02-05T05:54:33.913Z,99614.28
2019-02-05T05:57:03.498Z,99615.86
2019-02-05T05:59:33.088Z,99620.05
2019-02-05T06:02:03.073Z,99624.50
2019-02-05T06:04:32.867Z,99624.31
2019-02-05T06:07:02.462Z,99628.28
2019-02-05T06:09:32.139Z,99627.09
2019-02-05T06:12:01.711Z,99629.14
2019-02-05T06:14:31.305Z,99630.05
2019-02-05T06:17:00.919Z,99630.56
2019-02-05T06:19:30.713Z,99638.50
2019-02-05T06:22:09.017Z,99636.73
2019-02-05T06:24:38.634Z,99635.34
2019-02-05T06:27:08.369Z,99646.70
2019-02-05T06:29:38.223Z,99646.73
2019-02-05T06:32:08.089Z,99642.49
2019-02-05T06:34:37.737Z,99646.75
2019-02-05T06:37:07.667Z,99654.98
2019-02-05T06:39:37.243Z,99661.50
2019-02-05T06:42:06.955Z,99656.73
2019-02-05T06:44:36.609Z,99657.98
2019-02-05T06:47:07.815Z,99653.44
2019-02-05T06:49:37.492Z,99654.16
2019-02-05T06:52:07.374Z,99650.16
2019-02-05T06:54:36.938Z,99653.11
2019-02-05T06:57:06.877Z,99654.96
2019-02-05T06:59:36.474Z,99663.45
2019-02-05T07:02:08.653Z,99670.59
2019-02-05T07:04:38.523Z,99668.83
2019-02-05T07:07:08.452Z,99672.86
2019-02-05T07:09:38.367Z,99672.22
2019-02-05T07:12:08.026Z,99679.31
2019-02-05T07:14:37.628Z,99678.78
2019-02-05T07:17:09.623Z,99678.67
2019-02-05T07:19:39.211Z,99682.83
2019-02-05T07:22:09.113Z,99683.48
2019-02-05T07:24:38.753Z,99682.55
2019-02-05T07:27:08.342Z,99678.34
2019-02-05T07:29:40.700Z,99681.23
2019-02-05T07:32:11.219Z,99682.95
2019-02-05T07:34:40.795Z,99676.36
2019-02-05T07:37:10.562Z,99679.63
2019-02-05T07:39:40.315Z,99685.02
2019-02-05T07:42:10.285Z,99689.90
2019-02-05T07:44:40.219Z,99696.06
2019-02-05T07:47:10.010Z,99700.20
2019-02-05T07:49:39.949Z,99697.91
2019-02-05T07:52:09.595Z,99690.21
2019-02-05T07:54:39.228Z,99680.16
2019-02-05T07:57:09.074Z,99669.19
2019-02-05T07:59:38.870Z,99662.45
2019-02-05T08:02:08.658Z,99658.44
2019-02-05T08:04:38.231Z,99662.70
2019-02-05T08:07:07.905Z,99649.21
2019-02-05T08:09:37.608Z,99643.13
2019-02-05T08:12:07.235Z,99649.14
2019-02-05T08:14:36.918Z,99657.56
2019-02-05T08:17:06.474Z,99648.64
2019-02-05T08:19:36.114Z,99650.33
2019-02-05T08:22:05.983Z,99644.78
2019-02-05T08:24:36.062Z,99659.60
2019-02-05T08:27:05.921Z,99635.26
2019-02-05T08:29:36.195Z,99634.80
2019-02-05T08:32:06.108Z,99636.62
2019-02-05T08:34:35.852Z,99659.95
2019-02-05T08:37:05.960Z,99658.83
2019-02-05T08:39:35.828Z,99633.72
2019-02-05T08:42:05.963Z,99620.80
2019-02-05T08:44:35.611Z,99616.27
2019-02-05T08:47:05.231Z,99614.53
2019-02-05T08:49:34.933Z,99623.79
2019-02-05T08:52:04.661Z,99626.35
2019-02-05T08:54:34.236Z,99627.18
2019-02-05T08:57:04.221Z,99623.73
2019-02-05T08:59:33.972Z,99619.67
2019-02-05T09:02:03.931Z,99614.89
2019-02-05T09:04:33.603Z,99618.00
2019-02-05T09:07:03.220Z,99631.48
2019-02-05T09:09:32.872Z,99637.92
2019-02-05T09:12:03.128Z,99628.83
2019-02-05T09:14:32.803Z,99621.38
2019-02-05T09:17:02.433Z,99634.71
2019-02-05T09:19:32.164Z,99638.64
2019-02-05T09:22:01.835Z,99626.70
2019-02-05T09:24:37.606Z,99619.39
2019-02-05T09:27:09.306Z,99616.71
2019-02-05T09:29:38.932Z,99615.01
2019-02-05T09:32:11.257Z,99622.41
2019-02-05T09:34:40.959Z,99634.23
2019-02-05T09:37:10.601Z,99615.48
2019-02-05T09:39:40.228Z,99623.90
2019-02-05T09:42:10.288Z,99628.36
2019-02-05T09:44:39.912Z,99625.21
2019-02-05T09:47:09.693Z,99628.86
2019-02-05T09:49:41.031Z,99637.05
2019-02-05T09:52:16.386Z,99649.08
2019-02-05T09:54:45.992Z,99652.98
2019-02-05T09:57:15.860Z,99646.13
2019-02-05T09:59:45.868Z,99652.77
2019-02-05T10:02:15.519Z,99651.58
2019-02-05T10:04:45.168Z,99664.73
2019-02-05T10:07:14.793Z,99656.17
2019-02-05T10:09:44.409Z,99670.38
2019-02-05T10:12:14.485Z,99667.52
2019-02-05T10:14:44.110Z,99674.03
2019-02-05T10:17:13.766Z,99671.23
2019-02-05T10:19:43.528Z,99669.23
2019-02-05T10:22:13.360Z,99670.64
2019-02-05T10:24:43.160Z,99681.53
2019-02-05T10:27:12.923Z,99671.04
2019-02-05T10:29:42.544Z,99672.64
2019-02-05T10:32:20.279Z,99664.73
2019-02-05T10:34:49.950Z,99663.59
2019-02-05T10:37:22.527Z,99669.20
2019-02-05T10:39:52.148Z,99665.00
2019-02-05T10:42:21.854Z,99685.31
2019-02-05T10:45:02.055Z,99671.70
2019-02-05T10:47:31.621Z,99666.89
2019-02-05T10:50:01.213Z,99666.99
2019-02-05T10:52:50.389Z,99671.05
2019-02-05T10:55:22.474Z,99668.02
2019-02-05T10:57:54.669Z,99672.77
2019-02-05T11:00:28.279Z,99681.16
2019-02-05T11:03:00.765Z,99670.58
2019-02-05T11:05:32.381Z,99661.92
2019-02-05T11:08:02.231Z,99677.31
2019-02-05T11:10:31.916Z,99669.98
2019-02-05T11:13:01.711Z,99667.30
2019-02-05T11:15:33.430Z,99662.86
2019-02-05T11:18:06.936Z,99660.59
2019-02-05T11:20:36.801Z,99661.84
2019-02-05T11:23:06.895Z,99663.61
2019-02-05T11:25:36.907Z,99661.31
2019-02-05T11:28:06.715Z,99659.63
2019-02-05T11:30:40.566Z,99658.02
2019-02-05T11:33:10.813Z,99657.51
2019-02-05T11:35:40.564Z,99650.22
2019-02-05T11:38:11.063Z,99665.37
2019-02-05T11:40:41.756Z,99653.03
2019-02-05T11:43:11.462Z,99637.12
2019-02-05T11:45:41.538Z,99638.28
2019-02-05T11:48:15.244Z,99646.59
2019-02-05T11:50:45.131Z,99641.91
2019-02-05T11:53:14.940Z,99627.45
2019-02-05T11:55:44.822Z,99628.52
2019-02-05T11:58:14.759Z,99630.83
2019-02-05T12:00:46.771Z,99627.78
2019-02-05T12:03:17.539Z,99636.83
2019-02-05T12:05:48.715Z,99636.17
2019-02-05T12:08:18.905Z,99634.81
2019-02-05T12:10:48.667Z,99627.87
2019-02-05T12:13:18.239Z,99632.66
2019-02-05T12:15:49.500Z,99629.93
2019-02-05T12:18:19.379Z,99638.61
2019-02-05T12:20:49.260Z,99640.30
2019-02-05T12:23:19.182Z,99648.31
2019-02-05T12:25:48.920Z,99642.37
2019-02-05T12:28:18.506Z,99629.92
2019-02-05T12:30:48.889Z,99631.11
2019-02-05T12:33:18.517Z,99628.00
2019-02-05T12:35:48.657Z,99623.49
2019-02-05T12:38:18.555Z,99613.44
2019-02-05T12:40:48.483Z,99619.67
2019-02-05T12:43:18.221Z,99612.81
2019-02-05T12:45:48.491Z,99619.89
2019-02-05T12:48:18.095Z,99623.77
2019-02-05T12:50:48.303Z,99632.45
2019-02-05T12:53:18.010Z,99631.62
2019-02-05T12:55:47.711Z,99621.75
2019-02-05T12:58:17.399Z,99633.60
2019-02-05T13:00:57.421Z,99620.45
2019-02-05T13:03:21.373Z,99610.97
2019-02-05T13:05:51.887Z,99611.49
2019-02-05T13:08:21.802Z,99614.63
2019-02-05T13:10:53.324Z,99622.38
2019-02-05T13:13:23.443Z,99625.77
2019-02-05T13:15:53.250Z,99624.97
2019-02-05T13:18:23.331Z,99624.69
2019-02-05T13:20:52.957Z,99626.87
2019-02-05T13:23:24.118Z,99632.25
2019-02-05T13:25:55.403Z,99621.19
2019-02-05T13:28:25.095Z,99624.66
2019-02-05T13:30:54.929Z,99636.64
2019-02-05T13:33:24.778Z,99641.98
2019-02-05T13:35:55.984Z,99631.12
2019-02-05T13:38:25.762Z,99627.54
2019-02-05T13:40:56.825Z,99633.45
2019-02-05T13:43:26.560Z,99638.66
2019-02-05T13:45:56.790Z,99640.64
2019-02-05T13:48:27.838Z,99646.39
2019-02-05T13:50:58.914Z,99640.30
2019-02-05T13:53:30.417Z,99636.39
2019-02-05T13:56:00.056Z,99636.17
2019-02-05T13:58:30.094Z,99639.69
2019-02-05T14:00:59.970Z,99644.11
2019-02-05T14:03:29.591Z,99638.00
2019-02-05T14:05:59.211Z,99639.38
2019-02-05T14:08:28.987Z,99635.86
2019-02-05T14:10:58.618Z,99640.56
2019-02-05T14:13:28.782Z,99640.47
2019-02-05T14:15:58.777Z,99640.34
2019-02-05T14:18:29.883Z,99651.01
2019-02-05T14:20:59.492Z,99648.25
2019-02-05T14:23:29.140Z,99645.87
2019-02-05T14:25:59.731Z,99646.31
2019-02-05T14:28:29.662Z,99643.36
2019-02-05T14:30:59.639Z,99647.46
2019-02-05T14:33:29.433Z,99644.69
2019-02-05T14:35:59.284Z,99644.28
2019-02-05T14:38:29.770Z,99643.58
2019-02-05T14:40:59.908Z,99647.71
2019-02-05T14:43:29.603Z,99646.33
2019-02-05T14:46:01.098Z,99643.39
2019-02-05T14:48:30.690Z,99642.14
2019-02-05T14:51:00.306Z,99646.21
2019-02-05T14:53:29.993Z,99636.76
2019-02-05T14:55:59.566Z,99637.28
2019-02-05T14:58:29.227Z,99635.95
2019-02-05T15:00:59.122Z,99631.53
2019-02-05T15:03:28.833Z,99630.64
2019-02-05T15:05:58.584Z,99626.05
2019-02-05T15:08:28.420Z,99637.30
2019-02-05T15:10:58.419Z,99634.75
2019-02-05T15:13:27.970Z,99634.75
2019-02-05T15:15:57.571Z,99636.50
2019-02-05T15:18:27.339Z,99636.94
2019-02-05T15:20:57.291Z,99623.80
2019-02-05T15:23:27.024Z,99623.76
2019-02-05T15:25:57.156Z,99630.03
2019-02-05T15:28:27.021Z,99631.25
2019-02-05T15:30:56.680Z,99639.47
2019-02-05T15:33:27.885Z,99648.52
2019-02-05T15:35:59.300Z,99649.78
2019-02-05T15:38:29.534Z,99652.30
2019-02-05T15:40:59.717Z,99646.91
2019-02-05T15:43:29.481Z,99648.00
2019-02-05T15:45:59.287Z,99646.81
2019-02-05T15:48:29.064Z,99643.44
2019-02-05T15:50:58.672Z,99647.70
2019-02-05T15:53:28.385Z,99649.11
2019-02-05T15:55:58.358Z,99651.61
2019-02-05T15:58:28.102Z,99651.55
2019-02-05T16:00:57.882Z,99655.22
2019-02-05T16:03:27.472Z,99649.59
2019-02-05T16:05:58.555Z,99654.05
2019-02-05T16:08:28.601Z,99653.53
2019-02-05T16:10:58.208Z,99657.06
2019-02-05T16:13:27.790Z,99656.86
2019-02-05T16:15:57.403Z,99653.23
2019-02-05T16:18:46.255Z,99672.38
2019-02-05T16:21:35.548Z,99674.75
2019-02-05T16:24:05.623Z,99669.89
2019-02-05T16:26:35.204Z,99669.92
2019-02-05T16:29:06.050Z,99672.66
2019-02-05T16:31:35.719Z,99676.95
2019-02-05T16:34:05.570Z,99682.88
2019-02-05T16:36:35.384Z,99686.50
2019-02-05T16:39:09.540Z,99683.23
2019-02-05T16:41:58.459Z,99687.78
2019-02-05T16:44:29.506Z,99684.73
2019-02-05T16:46:59.216Z,99683.09
2019-02-05T16:49:28.882Z,99679.61
2019-02-05T16:51:58.831Z,99684.97
2019-02-05T16:54:28.400Z,99688.87
2019-02-05T16:56:57.993Z,99691.64
2019-02-05T16:59:27.749Z,99699.73
2019-02-05T17:01:58.848Z,99700.93
2019-02-05T17:04:28.475Z,99698.25
2019-02-05T17:06:58.196Z,99702.98
2019-02-05T17:09:27.795Z,99705.76
2019-02-05T17:11:57.572Z,99710.17
2019-02-05T17:14:27.189Z,99706.73
2019-02-05T17:17:16.103Z,99708.47
2019-02-05T17:19:47.154Z,99710.38
2019-02-05T17:22:18.570Z,99711.27
2019-02-05T17:25:10.797Z,99710.22
2019-02-05T17:28:02.116Z,99704.94
2019-02-05T17:30:36.003Z,99710.10
2019-02-05T17:33:06.786Z,99706.49
2019-02-05T17:35:36.407Z,99702.02
2019-02-05T17:38:08.884Z,99702.74
2019-02-05T17:40:38.814Z,99706.69
2019-02-05T17:43:08.666Z,99699.64
2019-02-05T17:45:41.758Z,99705.28
2019-02-05T17:48:15.461Z,99708.01
2019-02-05T17:50:48.481Z,99700.69
2019-02-05T17:53:18.304Z,99705.22
2019-02-05T17:55:47.868Z,99707.48
2019-02-05T17:58:18.026Z,99714.77
2019-02-05T18:00:49.519Z,99714.94
2019-02-05T18:03:19.595Z,99714.25
2019-02-05T18:05:49.268Z,99717.02
2019-02-05T18:08:19.005Z,99723.27
2019-02-05T18:10:48.630Z,99726.36
2019-02-05T18:13:18.373Z,99728.55
2019-02-05T18:16:09.244Z,99719.67
2019-02-05T18:18:38.840Z,99721.83
2019-02-05T18:21:08.389Z,99728.20
2019-02-05T18:23:38.717Z,99736.72
2019-02-05T18:26:08.404Z,99737.92
2019-02-05T18:28:38.797Z,99729.13
2019-02-05T18:31:08.988Z,99736.83
2019-02-05T18:33:38.636Z,99733.00
2019-02-05T18:36:08.428Z,99732.97
2019-02-05T18:38:39.387Z,99733.61
2019-02-05T18:41:09.458Z,99729.88
2019-02-05T18:43:39.334Z,99731.62
2019-02-05T18:46:09.223Z,99732.54
2019-02-05T18:48:38.884Z,99732.48
2019-02-05T18:51:08.469Z,99727.06
2019-02-05T18:53:38.072Z,99730.57
2019-02-05T18:56:07.896Z,99727.55
2019-02-05T18:58:37.474Z,99721.69
2019-02-05T19:01:07.565Z,99721.86
2019-02-05T19:03:37.245Z,99727.59
2019-02-05T19:06:06.893Z,99725.75
2019-02-05T19:08:36.456Z,99729.40
2019-02-05T19:11:08.528Z,99738.80
2019-02-05T19:13:38.113Z,99737.48
2019-02-05T19:16:08.216Z,99741.09
2019-02-05T19:18:57.110Z,99745.62
2019-02-05T19:21:26.683Z,99742.09
2019-02-05T19:23:57.828Z,99747.25
2019-02-05T19:26:47.334Z,99744.73
2019-02-05T19:29:36.174Z,99753.07
2019-02-05T19:32:06.234Z,99753.19
2019-02-05T19:34:35.780Z,99760.13
2019-02-05T19:37:05.607Z,99759.70
2019-02-05T19:39:35.217Z,99762.67
2019-02-05T19:42:05.119Z,99760.30
2019-02-05T19:44:39.024Z,99760.59
2019-02-05T19:47:09.006Z,99760.85
2019-02-05T19:49:38.562Z,99757.87
2019-02-05T19:52:27.864Z,99755.06
2019-02-05T19:54:57.642Z,99752.50
2019-02-05T19:57:27.267Z,99755.34
2019-02-05T19:59:57.151Z,99751.22
2019-02-05T20:02:26.715Z,99742.20
2019-02-05T20:04:56.301Z,99748.13
2019-02-05T20:07:25.905Z,99739.31
2019-02-05T20:09:55.452Z,99749.82
2019-02-05T20:12:44.798Z,99750.73
2019-02-05T20:15:19.666Z,99749.58
2019-02-05T20:17:48.528Z,99750.00
2019-02-05T20:20:20.607Z,99750.95
2019-02-05T20:22:51.932Z,99751.19
2019-02-05T20:25:22.997Z,99745.70
2019-02-05T20:27:52.839Z,99746.31
2019-02-05T20:30:25.039Z,99746.61
2019-02-05T20:32:55.633Z,99746.40
2019-02-05T20:35:25.330Z,99746.25
2019-02-05T20:37:55.194Z,99749.06
2019-02-05T20:40:27.052Z,99753.08
2019-02-05T20:42:56.883Z,99746.05
2019-02-05T20:45:26.532Z,99742.78
2019-02-05T20:47:56.233Z,99743.97
2019-02-05T20:50:25.963Z,99746.16
2019-02-05T20:52:55.920Z,99738.35
2019-02-05T20:55:26.649Z,99734.06
2019-02-05T20:57:56.391Z,99727.11
2019-02-05T21:00:31.792Z,99735.73
2019-02-05T21:03:04.633Z,99732.81
2019-02-05T21:05:37.160Z,99730.34
2019-02-05T21:08:07.328Z,99732.76
2019-02-05T21:10:36.912Z,99730.11
2019-02-05T21:13:06.868Z,99728.02
2019-02-05T21:15:36.521Z,99731.58
2019-02-05T21:18:12.119Z,99723.76
2019-02-05T21:20:42.078Z,99726.33
2019-02-05T21:23:11.657Z,99727.46
2019-02-05T21:25:41.260Z,99720.41
2019-02-05T21:28:10.972Z,99723.06
2019-02-05T21:30:40.528Z,99724.97
2019-02-05T21:33:10.572Z,99726.55
2019-02-05T21:35:40.544Z,99734.52
2019-02-05T21:38:10.172Z,99738.13
2019-02-05T21:40:39.833Z,99732.87
2019-02-05T21:43:09.593Z,99741.41
2019-02-05T21:45:39.173Z,99739.25
2019-02-05T21:48:08.748Z,99744.13
2019-02-05T21:50:38.724Z,99742.40
2019-02-05T21:53:08.299Z,99742.54
2019-02-05T21:55:57.175Z,99744.23
2019-02-05T21:58:26.765Z,99740.73
2019-02-05T22:01:15.697Z,99732.27
2019-02-05T22:03:45.232Z,99737.33
2019-02-05T22:06:14.917Z,99740.18
2019-02-05T22:08:44.610Z,99738.33
2019-02-05T22:11:14.156Z,99734.06
2019-02-05T22:13:43.601Z,99731.21
2019-02-05T22:16:13.373Z,99734.59
2019-02-05T22:18:43.484Z,99730.77
2019-02-05T22:21:13.686Z,99729.91
2019-02-05T22:23:43.318Z,99729.00
2019-02-05T22:26:12.903Z,99726.97
2019-02-05T22:28:42.490Z,99733.26
2019-02-05T22:31:13.554Z,99728.95
2019-02-05T22:33:43.298Z,99732.00
2019-02-05T22:36:13.205Z,99735.34
2019-02-05T22:39:02.099Z,99731.63
2019-02-05T22:41:31.785Z,99729.61
2019-02-05T22:44:01.438Z,99728.64
2019-02-05T22:46:31.033Z,99732.72
2019-02-05T22:49:00.707Z,99737.61
2019-02-05T22:51:50.041Z,99734.45
2019-02-05T22:54:19.647Z,99736.63
2019-02-05T22:56:49.493Z,99741.83
2019-02-05T22:59:19.602Z,99739.17
2019-02-05T23:01:50.332Z,99739.92
2019-02-05T23:04:50.590Z,99739.03
2019-02-05T23:07:31.465Z,99738.33
2019-02-05T23:10:05.767Z,99734.87
2019-02-05T23:12:42.235Z,99733.75
2019-02-05T23:15:16.536Z,99729.61
2019-02-05T23:17:46.285Z,99729.77
2019-02-05T23:20:18.779Z,99732.42
2019-02-05T23:22:48.719Z,99728.74
2019-02-05T23:25:18.576Z,99724.46
2019-02-05T23:27:48.392Z,99719.03
2019-02-05T23:30:21.898Z,99708.45
2019-02-05T23:32:51.506Z,99715.27
2019-02-05T23:35:21.724Z,99716.70
2019-02-05T23:37:51.479Z,99716.21
2019-02-05T23:40:24.306Z,99712.07
2019-02-05T23:42:54.401Z,99714.55
2019-02-05T23:45:24.149Z,99712.23
2019-02-05T23:47:53.701Z,99708.41
2019-02-05T23:50:23.880Z,99701.22
2019-02-05T23:52:53.557Z,99703.23
2019-02-05T23:55:23.160Z,99701.48
2019-02-05T23:57:52.733Z,99702.45
